Time;durP1;ratioP1;P1;durP2;ratioP2;P2;SDS_P1;SDS_P2;PMS_P1;PMS_P2;Temp;Humidity;BMP_temperature;BMP_pressure;BME280_temperature;BME280_humidity;BME280_pressure;Samples;Min_cycle;Max_cycle;Signal;HPM_P1;HPM_P2
2024/01/26 00:01:01;;;;;;;;;;;5.70;99.90;;;;;;5053268;28;19917;-77
2024/01/26 00:03:47;;;;;;;;;;;5.70;99.90;;;;;;5038081;28;19920;-77
2024/01/26 00:06:33;;;;;;;;;;;5.70;99.90;;;;;;5018955;28;20015;-77
2024/01/26 00:09:20;;;;;;;;;;;5.70;99.90;;;;;;5035091;28;19920;-76
2024/01/26 00:12:06;;;;;;;;;;;5.70;99.90;;;;;;5034161;28;19917;-76
2024/01/26 00:14:51;;;;;;;;;;;5.70;99.90;;;;;;5039166;28;19983;-77
2024/01/26 00:17:37;;;;;;;;;;;5.70;99.90;;;;;;5022761;28;21403;-77
2024/01/26 00:20:23;;;;;;;;;;;5.70;99.90;;;;;;5037539;28;19913;-77
2024/01/26 00:23:09;;;;;;;;;;;5.70;99.90;;;;;;5054274;28;19917;-77
2024/01/26 00:25:55;;;;;;;;;;;5.80;99.90;;;;;;5049543;28;19920;-77
2024/01/26 00:28:41;;;;;;;;;;;5.70;99.90;;;;;;5030428;28;20023;-77
2024/01/26 00:31:27;;;;;;;;;;;5.70;99.90;;;;;;5040586;28;19923;-77
2024/01/26 00:34:12;;;;;;;;;;;5.70;99.90;;;;;;5030367;28;19924;-77
2024/01/26 00:37:00;;;;;;;;;;;5.70;99.90;;;;;;5043161;28;19921;-77
2024/01/26 00:39:46;;;;;;;;;;;5.70;99.90;;;;;;5058346;28;19928;-77
2024/01/26 00:42:32;;;;;;;;;;;5.80;99.90;;;;;;5022757;28;20214;-77
2024/01/26 00:45:18;;;;;;;;;;;5.70;99.90;;;;;;5038369;28;20594;-77
2024/01/26 00:48:04;;;;;;;;;;;5.70;99.90;;;;;;5028161;28;19921;-76
2024/01/26 00:50:50;;;;;;;;;;;5.80;99.90;;;;;;5034563;28;20329;-77
2024/01/26 00:53:36;;;;;;;;;;;5.80;99.90;;;;;;5023777;28;19917;-77
2024/01/26 00:56:21;;;;;;;;;;;5.70;99.90;;;;;;5023519;28;19921;-77
2024/01/26 00:59:07;;;;;;;;;;;5.80;99.90;;;;;;5038486;28;20003;-77
2024/01/26 01:01:54;;;;;;;;;;;5.80;99.90;;;;;;5040164;28;19947;-77
2024/01/26 01:04:40;;;;;;;;;;;5.80;99.90;;;;;;5056144;28;19921;-77
2024/01/26 01:07:26;;;;;;;;;;;5.80;99.90;;;;;;5011155;28;19917;-77
2024/01/26 01:10:13;;;;;;;;;;;5.80;99.90;;;;;;5033089;28;19955;-76
2024/01/26 01:12:59;;;;;;;;;;;5.80;99.90;;;;;;5015599;28;19921;-77
2024/01/26 01:15:45;;;;;;;;;;;5.80;99.90;;;;;;5015153;28;19917;-76
2024/01/26 01:18:31;;;;;;;;;;;5.80;99.90;;;;;;4994105;28;19989;-76
2024/01/26 01:21:17;;;;;;;;;;;5.80;99.90;;;;;;5003688;28;20978;-76
2024/01/26 01:24:03;;;;;;;;;;;5.80;99.90;;;;;;5010068;28;20314;-76
2024/01/26 01:26:49;;;;;;;;;;;5.80;99.90;;;;;;5007744;28;19921;-76
2024/01/26 01:29:34;;;;;;;;;;;5.80;99.90;;;;;;5031981;28;19947;-76
2024/01/26 01:32:20;;;;;;;;;;;5.80;99.90;;;;;;5021483;28;19945;-76
2024/01/26 01:35:08;;;;;;;;;;;5.80;99.90;;;;;;4995400;28;19913;-76
2024/01/26 01:37:54;;;;;;;;;;;5.80;99.90;;;;;;5009545;28;19913;-76
2024/01/26 01:40:39;;;;;;;;;;;5.90;99.90;;;;;;5005803;28;20373;-76
2024/01/26 01:43:25;;;;;;;;;;;5.90;99.90;;;;;;5031711;28;19987;-76
2024/01/26 01:46:11;;;;;;;;;;;5.90;99.90;;;;;;5002095;28;19917;-76
2024/01/26 01:48:58;;;;;;;;;;;5.90;99.90;;;;;;5006757;28;19948;-76
2024/01/26 01:51:45;;;;;;;;;;;5.90;99.90;;;;;;5001543;28;20067;-76
2024/01/26 01:54:31;;;;;;;;;;;5.90;99.90;;;;;;5001731;28;19928;-76
2024/01/26 01:57:17;;;;;;;;;;;6.00;99.90;;;;;;5004875;28;20317;-76
2024/01/26 02:00:04;;;;;;;;;;;6.00;99.90;;;;;;4999027;28;19960;-76
2024/01/26 02:02:50;;;;;;;;;;;6.00;99.90;;;;;;5016426;28;19925;-76
2024/01/26 02:05:36;;;;;;;;;;;6.00;99.90;;;;;;4997881;28;20020;-76
2024/01/26 02:08:23;;;;;;;;;;;6.10;99.90;;;;;;5050270;28;19913;-76
2024/01/26 02:11:09;;;;;;;;;;;6.10;99.90;;;;;;5027051;28;19925;-76
2024/01/26 02:13:55;;;;;;;;;;;6.00;99.90;;;;;;5007616;28;19913;-76
2024/01/26 02:16:51;;;;;;;;;;;6.00;99.90;;;;;;5022834;28;19924;-76
2024/01/26 02:19:37;;;;;;;;;;;6.10;99.90;;;;;;5024436;28;19928;-76
2024/01/26 02:22:23;;;;;;;;;;;6.10;99.90;;;;;;5056453;28;19913;-76
2024/01/26 02:25:09;;;;;;;;;;;6.10;99.90;;;;;;5041325;28;19932;-76
2024/01/26 02:27:54;;;;;;;;;;;6.10;99.90;;;;;;5041535;28;19971;-76
2024/01/26 02:30:40;;;;;;;;;;;6.10;99.90;;;;;;5041282;28;19916;-76
2024/01/26 02:33:26;;;;;;;;;;;6.10;99.90;;;;;;5040615;28;19958;-76
2024/01/26 02:36:13;;;;;;;;;;;6.10;99.90;;;;;;5040425;28;19924;-76
2024/01/26 02:38:59;;;;;;;;;;;6.10;99.90;;;;;;5026562;28;20003;-76
2024/01/26 02:41:45;;;;;;;;;;;6.10;99.90;;;;;;5022253;28;19924;-76
2024/01/26 02:44:31;;;;;;;;;;;6.10;99.90;;;;;;5029458;28;19920;-76
2024/01/26 02:47:17;;;;;;;;;;;6.10;99.90;;;;;;5040129;28;19992;-76
2024/01/26 02:50:04;;;;;;;;;;;6.10;99.90;;;;;;5022067;28;19928;-76
2024/01/26 02:52:50;;;;;;;;;;;6.20;99.90;;;;;;5038272;28;19912;-76
2024/01/26 02:55:36;;;;;;;;;;;6.20;99.90;;;;;;5020857;28;19983;-77
2024/01/26 02:58:22;;;;;;;;;;;6.20;99.90;;;;;;5023029;28;20015;-77
2024/01/26 03:01:09;;;;;;;;;;;6.20;99.90;;;;;;5026508;28;19912;-76
2024/01/26 03:03:55;;;;;;;;;;;6.20;99.90;;;;;;5040030;28;19960;-77
2024/01/26 03:06:41;;;;;;;;;;;6.20;99.90;;;;;;5040725;28;19979;-76
2024/01/26 03:09:26;;;;;;;;;;;6.20;99.90;;;;;;5041006;28;19924;-77
2024/01/26 03:12:13;;;;;;;;;;;6.20;99.90;;;;;;5033089;28;19995;-77
2024/01/26 03:14:58;;;;;;;;;;;6.20;99.90;;;;;;5027690;28;19958;-76
2024/01/26 03:17:44;;;;;;;;;;;6.20;99.90;;;;;;5038908;28;19916;-76
2024/01/26 03:20:31;;;;;;;;;;;6.20;99.90;;;;;;5033672;28;20353;-76
2024/01/26 03:23:17;;;;;;;;;;;6.20;99.90;;;;;;5034504;28;19975;-76
2024/01/26 03:26:04;;;;;;;;;;;6.20;99.90;;;;;;5049578;28;19951;-77
2024/01/26 03:28:50;;;;;;;;;;;6.20;99.90;;;;;;5027017;28;19917;-76
2024/01/26 03:31:36;;;;;;;;;;;6.30;99.90;;;;;;5024426;28;19971;-76
2024/01/26 03:34:22;;;;;;;;;;;6.30;99.90;;;;;;5034547;28;19916;-76
2024/01/26 03:37:08;;;;;;;;;;;6.30;99.90;;;;;;5039754;28;19924;-76
2024/01/26 03:39:53;;;;;;;;;;;6.30;99.90;;;;;;5018817;28;19924;-76
2024/01/26 03:42:40;;;;;;;;;;;6.30;99.90;;;;;;5006047;28;19917;-76
2024/01/26 03:45:26;;;;;;;;;;;6.40;99.90;;;;;;5024863;28;19921;-78
2024/01/26 03:48:12;;;;;;;;;;;6.30;99.90;;;;;;5013106;28;19916;-78
2024/01/26 03:50:59;;;;;;;;;;;6.30;99.90;;;;;;5039399;28;20004;-78
2024/01/26 03:53:45;;;;;;;;;;;6.30;99.90;;;;;;5021788;28;19917;-77
2024/01/26 03:56:31;;;;;;;;;;;6.30;99.90;;;;;;5019539;28;20786;-77
2024/01/26 03:59:18;;;;;;;;;;;6.30;99.90;;;;;;5023875;28;19913;-78
2024/01/26 04:02:05;;;;;;;;;;;6.30;99.90;;;;;;5025529;28;20227;-77
2024/01/26 04:04:51;;;;;;;;;;;6.20;99.90;;;;;;5024779;28;19952;-78
2024/01/26 04:07:37;;;;;;;;;;;6.20;99.90;;;;;;5039665;28;20443;-78
2024/01/26 04:10:24;;;;;;;;;;;6.20;99.90;;;;;;5024448;28;19913;-77
2024/01/26 04:13:09;;;;;;;;;;;6.20;99.90;;;;;;5038359;28;19917;-77
2024/01/26 04:15:55;;;;;;;;;;;6.20;99.90;;;;;;5038997;28;19923;-78
2024/01/26 04:18:43;;;;;;;;;;;6.20;99.90;;;;;;5039526;28;19913;-78
2024/01/26 04:21:29;;;;;;;;;;;6.20;99.90;;;;;;5039938;28;19936;-78
2024/01/26 04:24:15;;;;;;;;;;;6.30;99.90;;;;;;5020767;28;19921;-77
2024/01/26 04:27:01;;;;;;;;;;;6.30;99.90;;;;;;5034206;28;20280;-78
2024/01/26 04:29:48;;;;;;;;;;;6.20;99.90;;;;;;5036048;28;19916;-78
2024/01/26 04:32:35;;;;;;;;;;;6.20;99.90;;;;;;5051993;28;19913;-77
2024/01/26 04:35:21;;;;;;;;;;;6.30;99.90;;;;;;5035553;28;19956;-78
2024/01/26 04:38:07;;;;;;;;;;;6.30;99.90;;;;;;5018563;28;20222;-78
2024/01/26 04:40:53;;;;;;;;;;;6.30;99.90;;;;;;5032746;28;19932;-78
2024/01/26 04:43:40;;;;;;;;;;;6.30;99.90;;;;;;5024737;28;19920;-78
2024/01/26 04:46:26;;;;;;;;;;;6.30;99.90;;;;;;5038917;28;19949;-78
2024/01/26 04:49:12;;;;;;;;;;;6.20;99.90;;;;;;5039532;28;19923;-78
2024/01/26 04:52:01;;;;;;;;;;;6.30;99.90;;;;;;5029412;28;19923;-78
2024/01/26 04:54:48;;;;;;;;;;;6.20;99.90;;;;;;5035578;28;20223;-78
2024/01/26 04:57:35;;;;;;;;;;;6.20;99.90;;;;;;5031979;28;19912;-78
2024/01/26 05:00:20;;;;;;;;;;;6.20;99.90;;;;;;5038353;28;19912;-78
2024/01/26 05:03:06;;;;;;;;;;;6.30;99.90;;;;;;5029828;28;19944;-78
2024/01/26 05:05:52;;;;;;;;;;;6.20;99.90;;;;;;5018495;28;19976;-78
2024/01/26 05:08:38;;;;;;;;;;;6.20;99.90;;;;;;5018937;28;20227;-78
2024/01/26 05:11:24;;;;;;;;;;;6.20;99.90;;;;;;5028958;28;20318;-78
2024/01/26 05:14:10;;;;;;;;;;;6.20;99.90;;;;;;5024791;28;19924;-78
2024/01/26 05:16:56;;;;;;;;;;;6.20;99.90;;;;;;5043104;28;20586;-78
2024/01/26 05:19:42;;;;;;;;;;;6.20;99.90;;;;;;5028689;28;19925;-78
2024/01/26 05:22:28;;;;;;;;;;;6.20;99.90;;;;;;5008381;28;19979;-77
2024/01/26 05:25:13;;;;;;;;;;;6.20;99.90;;;;;;5027516;28;20211;-78
2024/01/26 05:27:59;;;;;;;;;;;6.10;99.90;;;;;;5023718;28;19917;-78
2024/01/26 05:30:45;;;;;;;;;;;6.20;99.90;;;;;;5007972;28;19936;-78
2024/01/26 05:33:31;;;;;;;;;;;6.20;99.90;;;;;;5024992;28;19948;-78
2024/01/26 05:36:17;;;;;;;;;;;6.20;99.90;;;;;;5035308;28;19924;-77
2024/01/26 05:39:03;;;;;;;;;;;6.20;99.90;;;;;;5028938;28;19913;-78
2024/01/26 05:41:49;;;;;;;;;;;6.20;99.90;;;;;;5022162;28;20011;-78
2024/01/26 05:44:35;;;;;;;;;;;6.20;99.90;;;;;;5028190;28;19947;-78
2024/01/26 05:47:21;;;;;;;;;;;6.20;99.90;;;;;;5042051;28;19917;-78
2024/01/26 05:50:07;;;;;;;;;;;6.20;99.90;;;;;;5042443;28;19928;-78
2024/01/26 05:52:54;;;;;;;;;;;6.20;99.90;;;;;;5009430;28;20305;-78
2024/01/26 05:55:40;;;;;;;;;;;6.10;99.90;;;;;;5036370;28;19943;-78
2024/01/26 05:58:26;;;;;;;;;;;6.20;99.90;;;;;;5013738;28;20388;-78
2024/01/26 06:01:12;;;;;;;;;;;6.20;99.90;;;;;;5040097;28;19924;-78
2024/01/26 06:03:57;;;;;;;;;;;6.20;99.90;;;;;;5028523;28;19978;-78
2024/01/26 06:06:43;;;;;;;;;;;6.20;99.90;;;;;;5020554;28;19922;-78
2024/01/26 06:09:29;;;;;;;;;;;6.20;99.90;;;;;;5020174;28;20510;-78
2024/01/26 06:12:15;;;;;;;;;;;6.20;99.90;;;;;;5041299;28;19924;-79
2024/01/26 06:15:01;;;;;;;;;;;6.20;99.90;;;;;;5041089;28;19924;-79
2024/01/26 06:17:48;;;;;;;;;;;6.30;99.90;;;;;;5027310;28;19940;-79
2024/01/26 06:20:34;;;;;;;;;;;6.30;99.90;;;;;;5040527;28;19920;-79
2024/01/26 06:23:20;;;;;;;;;;;6.30;99.90;;;;;;5023909;28;19951;-79
2024/01/26 06:26:06;;;;;;;;;;;6.30;99.90;;;;;;5019076;28;19921;-79
2024/01/26 06:28:52;;;;;;;;;;;6.40;99.90;;;;;;5020738;28;19913;-78
2024/01/26 06:31:38;;;;;;;;;;;6.40;99.90;;;;;;5029856;28;20618;-79
2024/01/26 06:34:24;;;;;;;;;;;6.40;99.90;;;;;;5040063;28;19920;-77
2024/01/26 06:37:09;;;;;;;;;;;6.40;99.90;;;;;;5041541;28;20355;-78
2024/01/26 06:39:55;;;;;;;;;;;6.50;99.90;;;;;;5028815;28;19916;-78
2024/01/26 06:42:43;;;;;;;;;;;6.50;99.90;;;;;;5041321;28;19956;-78
2024/01/26 06:45:28;;;;;;;;;;;6.50;99.90;;;;;;5042417;28;19916;-78
2024/01/26 06:48:14;;;;;;;;;;;6.50;99.90;;;;;;5027273;28;19916;-78
2024/01/26 06:51:00;;;;;;;;;;;6.50;99.90;;;;;;5036072;28;19999;-78
2024/01/26 06:53:46;;;;;;;;;;;6.60;99.90;;;;;;5020479;28;19964;-79
2024/01/26 06:56:32;;;;;;;;;;;6.60;99.90;;;;;;5019977;28;19947;-78
2024/01/26 06:59:18;;;;;;;;;;;6.60;99.90;;;;;;5026820;28;19917;-79
2024/01/26 07:02:04;;;;;;;;;;;6.60;99.90;;;;;;5025671;28;20218;-79
2024/01/26 07:04:50;;;;;;;;;;;6.60;99.90;;;;;;5030475;28;19917;-80
2024/01/26 07:07:36;;;;;;;;;;;6.60;99.90;;;;;;5020303;28;19916;-79
2024/01/26 07:10:22;;;;;;;;;;;6.60;99.90;;;;;;5040114;28;20395;-78
2024/01/26 07:13:08;;;;;;;;;;;6.70;99.90;;;;;;5015930;28;19923;-78
2024/01/26 07:15:54;;;;;;;;;;;6.70;99.90;;;;;;5007378;28;19913;-78
2024/01/26 07:18:42;;;;;;;;;;;6.80;99.90;;;;;;5034709;28;20329;-78
2024/01/26 07:21:28;;;;;;;;;;;6.80;99.90;;;;;;5013454;28;19913;-78
2024/01/26 07:24:14;;;;;;;;;;;6.90;99.90;;;;;;5020741;28;19925;-78
2024/01/26 07:26:59;;;;;;;;;;;6.90;99.90;;;;;;5020559;28;20360;-78
2024/01/26 07:29:47;;;;;;;;;;;7.00;99.90;;;;;;5020908;28;20006;-77
2024/01/26 07:32:34;;;;;;;;;;;7.00;99.90;;;;;;5020060;28;20293;-78
2024/01/26 07:35:19;;;;;;;;;;;7.00;99.90;;;;;;5032864;28;19948;-78
2024/01/26 07:38:05;;;;;;;;;;;7.10;99.90;;;;;;5034126;28;19983;-78
2024/01/26 07:40:51;;;;;;;;;;;7.30;99.90;;;;;;5020096;28;19949;-77
2024/01/26 07:43:38;;;;;;;;;;;7.40;99.90;;;;;;5025717;28;19972;-78
2024/01/26 07:46:24;;;;;;;;;;;7.60;99.90;;;;;;5039340;28;19994;-78
2024/01/26 07:49:10;;;;;;;;;;;7.80;99.90;;;;;;5026895;28;19920;-78
2024/01/26 07:51:56;;;;;;;;;;;7.90;99.90;;;;;;5027121;28;20219;-78
2024/01/26 07:54:42;;;;;;;;;;;8.10;99.90;;;;;;5013547;28;19913;-78
2024/01/26 07:57:28;;;;;;;;;;;8.20;99.90;;;;;;5018833;28;19972;-77
2024/01/26 08:00:14;;;;;;;;;;;8.40;99.90;;;;;;5032769;28;19976;-78
2024/01/26 08:03:00;;;;;;;;;;;8.50;99.90;;;;;;5019141;28;19916;-77
2024/01/26 08:05:46;;;;;;;;;;;8.60;99.90;;;;;;5018575;28;20575;-77
2024/01/26 08:08:32;;;;;;;;;;;8.60;99.90;;;;;;5029744;28;19917;-78
2024/01/26 08:11:19;;;;;;;;;;;8.70;99.90;;;;;;5049795;28;20023;-77
2024/01/26 08:14:05;;;;;;;;;;;8.80;99.90;;;;;;5026437;28;19913;-77
2024/01/26 08:16:51;;;;;;;;;;;8.80;99.90;;;;;;5022203;28;19924;-77
2024/01/26 08:19:37;;;;;;;;;;;8.90;99.90;;;;;;5019294;28;19917;-78
2024/01/26 08:22:22;;;;;;;;;;;8.90;99.90;;;;;;5011537;28;19920;-78
2024/01/26 08:25:09;;;;;;;;;;;9.00;99.90;;;;;;5006661;28;19948;-78
2024/01/26 08:27:55;;;;;;;;;;;9.00;99.90;;;;;;5028800;28;19917;-78
2024/01/26 08:30:42;;;;;;;;;;;9.00;99.90;;;;;;5038079;28;20438;-78
2024/01/26 08:33:28;;;;;;;;;;;9.10;99.90;;;;;;5031950;28;19917;-77
2024/01/26 08:36:13;;;;;;;;;;;9.10;99.90;;;;;;5033313;28;20025;-78
2024/01/26 08:38:59;;;;;;;;;;;9.10;99.90;;;;;;5014859;28;19920;-77
2024/01/26 08:41:46;;;;;;;;;;;9.20;99.90;;;;;;5025877;28;20335;-77
2024/01/26 08:44:32;;;;;;;;;;;9.20;99.90;;;;;;5022785;28;19936;-78
2024/01/26 08:47:18;;;;;;;;;;;9.20;99.90;;;;;;5016499;28;20249;-78
2024/01/26 08:50:05;;;;;;;;;;;9.20;99.90;;;;;;5020600;28;20051;-77
2024/01/26 08:52:51;;;;;;;;;;;9.30;99.90;;;;;;5029538;28;20011;-77
2024/01/26 08:55:39;;;;;;;;;;;9.30;99.90;;;;;;5028882;28;19966;-77
2024/01/26 08:58:25;;;;;;;;;;;9.40;99.90;;;;;;5055458;28;19912;-78
2024/01/26 09:01:11;;;;;;;;;;;9.40;99.90;;;;;;5039288;28;20026;-77
2024/01/26 09:03:57;;;;;;;;;;;9.40;99.90;;;;;;5026922;28;19928;-77
2024/01/26 09:06:42;;;;;;;;;;;9.50;99.90;;;;;;5032745;28;20256;-77
2024/01/26 09:09:29;;;;;;;;;;;9.50;99.90;;;;;;5042746;28;20321;-77
2024/01/26 09:12:15;;;;;;;;;;;9.50;99.90;;;;;;5028056;28;19925;-77
2024/01/26 09:15:01;;;;;;;;;;;9.50;99.90;;;;;;5026877;28;20278;-77
2024/01/26 09:17:47;;;;;;;;;;;9.60;99.90;;;;;;5034727;28;19928;-77
2024/01/26 09:20:33;;;;;;;;;;;9.60;99.90;;;;;;5037518;28;19913;-77
2024/01/26 09:23:19;;;;;;;;;;;9.60;99.90;;;;;;5036344;28;19920;-77
2024/01/26 09:26:05;;;;;;;;;;;9.60;99.90;;;;;;5024660;28;19928;-77
2024/01/26 09:28:51;;;;;;;;;;;9.70;99.90;;;;;;5019483;28;19917;-76
2024/01/26 09:31:36;;;;;;;;;;;9.70;99.90;;;;;;5019533;28;19913;-77
2024/01/26 09:34:22;;;;;;;;;;;9.70;99.90;;;;;;5040171;28;19920;-77
2024/01/26 09:37:08;;;;;;;;;;;9.70;99.90;;;;;;5040144;28;19916;-77
2024/01/26 09:39:54;;;;;;;;;;;9.70;99.90;;;;;;5029415;28;20007;-78
2024/01/26 09:42:40;;;;;;;;;;;9.70;99.90;;;;;;5012170;28;19917;-78
2024/01/26 09:45:26;;;;;;;;;;;9.70;99.90;;;;;;5015754;28;19979;-77
2024/01/26 09:48:12;;;;;;;;;;;9.70;99.90;;;;;;5021375;28;20614;-78
2024/01/26 09:50:58;;;;;;;;;;;9.70;99.90;;;;;;5037774;28;19913;-78
2024/01/26 09:53:43;;;;;;;;;;;9.70;99.90;;;;;;5026170;28;19919;-77
2024/01/26 09:56:29;;;;;;;;;;;9.60;99.90;;;;;;5020163;28;19932;-77
2024/01/26 09:59:15;;;;;;;;;;;9.70;99.90;;;;;;5021638;28;19917;-77
2024/01/26 10:02:01;;;;;;;;;;;9.60;99.90;;;;;;5026593;28;19939;-77
2024/01/26 10:04:47;;;;;;;;;;;9.60;99.90;;;;;;5040158;28;19925;-77
2024/01/26 10:07:33;;;;;;;;;;;9.50;99.90;;;;;;5026567;28;20325;-77
2024/01/26 10:10:19;;;;;;;;;;;9.50;99.90;;;;;;5019866;28;19959;-77
2024/01/26 10:13:08;;;;;;;;;;;9.50;99.90;;;;;;5009529;28;19913;-77
2024/01/26 10:16:02;;;;;;;;;;;9.50;99.90;;;;;;5023533;28;20004;-77
2024/01/26 10:18:48;;;;;;;;;;;9.50;99.90;;;;;;5026655;28;19916;-77
2024/01/26 10:21:35;;;;;;;;;;;9.50;99.90;;;;;;5020489;28;19917;-77
2024/01/26 10:24:22;;;;;;;;;;;9.50;99.90;;;;;;5022872;28;19970;-77
2024/01/26 10:27:07;;;;;;;;;;;9.50;99.90;;;;;;5005425;28;19917;-77
2024/01/26 10:29:53;;;;;;;;;;;9.40;99.90;;;;;;5023263;28;19987;-78
2024/01/26 10:32:39;;;;;;;;;;;9.40;99.90;;;;;;5024134;28;19921;-78
2024/01/26 10:35:25;;;;;;;;;;;9.50;99.90;;;;;;5026097;28;19927;-78
2024/01/26 10:38:12;;;;;;;;;;;9.40;99.90;;;;;;5041969;28;19917;-78
2024/01/26 10:41:04;;;;;;;;;;;9.50;99.90;;;;;;5025968;28;19917;-77
2024/01/26 10:43:53;;;;;;;;;;;9.40;99.90;;;;;;5042203;28;19917;-77
2024/01/26 10:46:39;;;;;;;;;;;9.50;99.90;;;;;;5026735;28;19988;-77
2024/01/26 10:49:25;;;;;;;;;;;9.50;99.90;;;;;;5027361;28;19923;-77
2024/01/26 10:52:11;;;;;;;;;;;9.40;99.90;;;;;;5027463;28;19926;-78
2024/01/26 10:54:57;;;;;;;;;;;9.50;99.90;;;;;;5028639;28;19979;-78
2024/01/26 10:57:42;;;;;;;;;;;9.50;99.90;;;;;;5024722;28;19927;-77
2024/01/26 11:00:30;;;;;;;;;;;9.50;99.90;;;;;;5041271;28;20002;-78
2024/01/26 11:03:16;;;;;;;;;;;9.50;99.90;;;;;;5033686;28;20377;-78
2024/01/26 11:06:02;;;;;;;;;;;9.60;99.90;;;;;;4996354;28;19921;-78
2024/01/26 11:08:48;;;;;;;;;;;9.60;99.90;;;;;;4987109;28;19917;-78
2024/01/26 11:11:37;;;;;;;;;;;9.60;99.90;;;;;;5013443;28;19917;-78
2024/01/26 11:14:26;;;;;;;;;;;9.60;99.90;;;;;;4999582;28;19965;-78
2024/01/26 11:17:12;;;;;;;;;;;9.60;99.90;;;;;;5001007;28;19971;-78
2024/01/26 11:20:01;;;;;;;;;;;9.70;99.90;;;;;;4998685;28;19913;-78
2024/01/26 11:22:57;;;;;;;;;;;9.70;99.90;;;;;;5005171;28;19944;-78
2024/01/26 11:25:44;;;;;;;;;;;9.60;99.90;;;;;;5007347;28;20267;-78
2024/01/26 11:28:30;;;;;;;;;;;9.70;99.90;;;;;;4999719;28;19922;-78
2024/01/26 11:31:16;;;;;;;;;;;9.70;99.90;;;;;;5013975;28;19949;-78
2024/01/26 11:34:02;;;;;;;;;;;9.70;99.90;;;;;;5015629;28;19917;-78
2024/01/26 11:36:48;;;;;;;;;;;9.80;99.90;;;;;;4986789;28;19949;-78
2024/01/26 11:39:34;;;;;;;;;;;9.80;99.90;;;;;;5016876;28;20215;-78
2024/01/26 11:42:19;;;;;;;;;;;9.80;99.90;;;;;;4998966;28;19921;-78
2024/01/26 11:45:09;;;;;;;;;;;9.80;99.90;;;;;;4995850;28;19951;-78
2024/01/26 11:47:55;;;;;;;;;;;9.80;99.90;;;;;;5006188;28;20048;-77
2024/01/26 11:50:41;;;;;;;;;;;9.80;99.90;;;;;;5035649;28;19917;-78
2024/01/26 11:53:27;;;;;;;;;;;9.90;99.90;;;;;;5020810;28;20024;-78
2024/01/26 11:56:13;;;;;;;;;;;9.90;99.90;;;;;;5020182;28;19967;-78
2024/01/26 11:58:59;;;;;;;;;;;9.80;99.90;;;;;;5011808;28;19918;-78
2024/01/26 12:01:45;;;;;;;;;;;9.90;99.90;;;;;;4994301;28;20316;-78
2024/01/26 12:04:31;;;;;;;;;;;9.90;99.90;;;;;;4994516;28;19921;-77
2024/01/26 12:07:17;;;;;;;;;;;9.90;99.90;;;;;;5005771;28;19991;-78
2024/01/26 12:10:03;;;;;;;;;;;9.90;99.90;;;;;;5011203;28;19922;-78
2024/01/26 12:12:49;;;;;;;;;;;9.90;99.90;;;;;;4986871;28;19917;-78
2024/01/26 12:15:39;;;;;;;;;;;10.00;99.90;;;;;;4986366;28;19921;-78
2024/01/26 12:18:25;;;;;;;;;;;10.00;99.90;;;;;;4991415;28;19960;-78
2024/01/26 12:21:11;;;;;;;;;;;10.00;99.90;;;;;;4992122;28;19945;-78
2024/01/26 12:23:58;;;;;;;;;;;10.10;99.90;;;;;;4999531;28;19918;-78
2024/01/26 12:26:44;;;;;;;;;;;10.10;99.90;;;;;;4990705;28;19917;-78
2024/01/26 12:29:30;;;;;;;;;;;10.00;99.90;;;;;;4999440;28;19924;-77
2024/01/26 12:32:18;;;;;;;;;;;10.10;99.90;;;;;;5004613;28;19914;-77
2024/01/26 12:35:04;;;;;;;;;;;10.10;99.90;;;;;;5015046;28;19956;-77
2024/01/26 12:37:50;;;;;;;;;;;10.10;99.90;;;;;;5022064;28;19920;-77
2024/01/26 12:40:36;;;;;;;;;;;10.10;99.90;;;;;;5003956;28;19918;-77
2024/01/26 12:43:22;;;;;;;;;;;10.10;99.90;;;;;;4990143;28;19917;-77
2024/01/26 12:46:10;;;;;;;;;;;10.10;99.90;;;;;;5002124;28;19921;-77
2024/01/26 12:48:56;;;;;;;;;;;10.10;99.90;;;;;;5006335;28;20227;-77
2024/01/26 12:51:41;;;;;;;;;;;10.10;99.90;;;;;;5021434;28;19917;-77
2024/01/26 12:54:27;;;;;;;;;;;10.20;99.90;;;;;;5008492;28;19913;-77
2024/01/26 12:57:13;;;;;;;;;;;10.20;99.90;;;;;;5006823;28;20522;-77
2024/01/26 12:59:59;;;;;;;;;;;10.10;99.90;;;;;;5010189;28;19917;-77
2024/01/26 13:02:47;;;;;;;;;;;10.00;99.90;;;;;;5001581;28;20262;-77
2024/01/26 13:05:33;;;;;;;;;;;9.80;99.90;;;;;;5010671;28;19953;-77
2024/01/26 13:08:19;;;;;;;;;;;9.70;99.90;;;;;;5025864;28;19951;-77
2024/01/26 13:11:05;;;;;;;;;;;9.60;99.90;;;;;;5057304;28;19912;-77
2024/01/26 13:13:51;;;;;;;;;;;9.50;99.90;;;;;;5029531;28;19927;-77
2024/01/26 13:16:40;;;;;;;;;;;9.50;99.90;;;;;;5043157;28;19913;-77
2024/01/26 13:19:28;;;;;;;;;;;9.40;99.90;;;;;;5008985;28;20253;-76
2024/01/26 13:22:14;;;;;;;;;;;9.30;99.90;;;;;;5023238;28;19916;-76
2024/01/26 13:25:01;;;;;;;;;;;9.30;99.90;;;;;;5027512;28;20019;-76
2024/01/26 13:27:48;;;;;;;;;;;9.30;99.90;;;;;;5025992;28;19948;-76
2024/01/26 13:30:35;;;;;;;;;;;9.20;99.90;;;;;;5040980;28;19916;-77
2024/01/26 13:33:21;;;;;;;;;;;9.20;99.90;;;;;;5022253;28;20331;-77
2024/01/26 13:36:07;;;;;;;;;;;9.20;99.90;;;;;;5023012;28;20294;-77
2024/01/26 13:38:53;;;;;;;;;;;9.10;99.90;;;;;;5033443;28;19948;-78
2024/01/26 13:41:40;;;;;;;;;;;9.10;99.90;;;;;;5027598;28;19923;-77
2024/01/26 13:44:27;;;;;;;;;;;9.10;99.90;;;;;;5020977;28;20329;-77
2024/01/26 13:47:12;;;;;;;;;;;9.10;99.90;;;;;;5023548;28;20325;-77
2024/01/26 13:49:58;;;;;;;;;;;9.00;99.90;;;;;;5026736;28;19913;-76
2024/01/26 13:52:44;;;;;;;;;;;9.00;99.90;;;;;;5037523;28;19917;-77
2024/01/26 13:55:33;;;;;;;;;;;9.00;99.90;;;;;;5022387;28;20257;-74
2024/01/26 13:58:20;;;;;;;;;;;9.00;99.90;;;;;;5023828;28;19917;-75
2024/01/26 14:01:07;;;;;;;;;;;9.00;99.90;;;;;;5055883;28;19913;-77
2024/01/26 14:03:53;;;;;;;;;;;9.00;99.90;;;;;;5011884;28;19929;-75
2024/01/26 14:06:41;;;;;;;;;;;8.90;99.90;;;;;;5014808;28;19931;-74
2024/01/26 14:09:27;;;;;;;;;;;8.90;99.90;;;;;;5020851;28;20151;-75
2024/01/26 14:12:12;;;;;;;;;;;8.90;99.90;;;;;;5011996;28;19988;-74
2024/01/26 14:15:01;;;;;;;;;;;8.90;99.90;;;;;;5023010;28;19913;-77
2024/01/26 14:17:47;;;;;;;;;;;8.90;99.90;;;;;;5025140;28;20431;-74
2024/01/26 14:20:35;;;;;;;;;;;8.70;99.90;;;;;;5028304;28;19928;-76
2024/01/26 14:23:24;;;;;;;;;;;8.30;99.90;;;;;;5016402;28;20414;-76
2024/01/26 14:26:10;;;;;;;;;;;7.70;99.90;;;;;;5028270;28;19928;-76
2024/01/26 14:28:56;;;;;;;;;;;7.60;99.90;;;;;;5027148;28;19913;-76
2024/01/26 14:31:42;;;;;;;;;;;7.50;99.90;;;;;;5026841;28;19916;-74
2024/01/26 14:34:28;;;;;;;;;;;7.50;99.90;;;;;;5024747;28;19917;-75
2024/01/26 14:37:17;;;;;;;;;;;7.50;99.90;;;;;;5041982;28;19923;-76
2024/01/26 14:40:11;;;;;;;;;;;7.50;99.90;;;;;;5053889;28;20337;-76
2024/01/26 14:42:57;;;;;;;;;;;7.70;99.90;;;;;;5041877;28;19991;-76
2024/01/26 14:45:43;;;;;;;;;;;7.60;99.90;;;;;;5039831;28;20011;-76
2024/01/26 14:48:30;;;;;;;;;;;7.70;99.90;;;;;;5039599;28;19916;-77
2024/01/26 14:51:17;;;;;;;;;;;7.90;99.90;;;;;;5018628;28;19936;-77
2024/01/26 14:54:03;;;;;;;;;;;7.90;99.90;;;;;;5017770;28;20439;-76
2024/01/26 14:56:49;;;;;;;;;;;8.10;99.90;;;;;;5021897;28;19928;-76
2024/01/26 14:59:35;;;;;;;;;;;8.20;99.90;;;;;;5017508;28;19963;-76
2024/01/26 15:02:21;;;;;;;;;;;8.40;99.90;;;;;;5023211;28;19959;-76
2024/01/26 15:05:07;;;;;;;;;;;8.50;99.90;;;;;;5024332;28;20440;-77
2024/01/26 15:07:54;;;;;;;;;;;8.40;99.90;;;;;;5020004;28;19913;-77
2024/01/26 15:10:40;;;;;;;;;;;8.20;99.90;;;;;;5014431;28;19921;-77
2024/01/26 15:13:26;;;;;;;;;;;8.10;99.90;;;;;;5027205;28;19955;-78
2024/01/26 15:16:14;;;;;;;;;;;8.10;99.90;;;;;;5037726;28;19982;-77
2024/01/26 15:19:00;;;;;;;;;;;8.00;99.90;;;;;;5008796;28;19921;-77
2024/01/26 15:21:46;;;;;;;;;;;7.90;99.90;;;;;;5034388;28;19927;-77
2024/01/26 15:24:32;;;;;;;;;;;7.90;99.90;;;;;;5038077;28;20638;-77
2024/01/26 15:27:21;;;;;;;;;;;7.90;99.90;;;;;;5023027;28;19928;-78
2024/01/26 15:30:10;;;;;;;;;;;7.80;99.90;;;;;;5041319;28;20245;-77
2024/01/26 15:32:56;;;;;;;;;;;7.80;99.90;;;;;;5025607;28;20445;-77
2024/01/26 15:35:43;;;;;;;;;;;7.90;99.90;;;;;;5025564;28;19924;-76
2024/01/26 15:38:29;;;;;;;;;;;7.90;99.90;;;;;;5035218;28;20617;-77
2024/01/26 15:41:15;;;;;;;;;;;7.90;99.90;;;;;;5024779;28;20584;-77
2024/01/26 15:44:01;;;;;;;;;;;7.80;99.90;;;;;;5036763;28;19947;-77
2024/01/26 15:46:47;;;;;;;;;;;7.70;99.90;;;;;;5018332;28;19923;-77
2024/01/26 15:49:32;;;;;;;;;;;7.60;99.90;;;;;;5022002;28;19917;-77
2024/01/26 15:52:18;;;;;;;;;;;7.50;99.90;;;;;;5015552;28;20257;-77
2024/01/26 15:55:05;;;;;;;;;;;7.50;99.90;;;;;;5021704;28;20004;-78
2024/01/26 15:57:51;;;;;;;;;;;7.40;99.90;;;;;;5011312;28;20003;-78
2024/01/26 16:00:37;;;;;;;;;;;7.40;99.90;;;;;;5053407;28;20306;-76
2024/01/26 16:03:24;;;;;;;;;;;7.30;99.90;;;;;;5021401;28;19947;-78
2024/01/26 16:06:10;;;;;;;;;;;7.30;99.90;;;;;;5018182;28;20003;-77
2024/01/26 16:08:58;;;;;;;;;;;7.10;99.90;;;;;;5027877;28;19916;-77
2024/01/26 16:11:45;;;;;;;;;;;7.10;99.90;;;;;;5024078;28;19924;-78
2024/01/26 16:14:31;;;;;;;;;;;7.10;99.90;;;;;;5024956;28;19979;-78
2024/01/26 16:17:18;;;;;;;;;;;7.10;99.90;;;;;;5037980;28;19913;-77
2024/01/26 16:20:04;;;;;;;;;;;7.10;99.90;;;;;;5038591;28;19913;-78